Terminal Aerodrome Forecast
Issued by NWS

Home | Current Version | Previous Version | Text Only | Print | Product List | Glossary On
Versions: 1 2 3 4 5 6 7 8 9 10 11 12 13 14 15 16 17 18 19 20 21 22 23 24 25 26 27 28 29 30 31 32 33 34 35 36 37 38 39 40
000
FTUS43 KDLH 310300 AAA
TAFHIB
TAF AMD
KHIB 310306Z 3103/3124 13007KT P6SM BKN006 OVC010
     FM310700 VRB02KT 6SM BR OVC025
     FM311000 VRB02KT 2SM BR SCT002
     FM311300 14006KT 4SM BR OVC015
     FM311800 17011G17KT P6SM VCSH SCT015 BKN050=

USA.gov is the U.S. government's official web portal to all federal, state and local government web resources and services.